sensor_id;sensor_type;location;lat;lon;timestamp;P1;durP1;ratioP1;P2;durP2;ratioP2
54454;SDS011;40364;52.270;10.546;2024-02-14T00:02:03;2.45;;;1.33;;
54454;SDS011;40364;52.270;10.546;2024-02-14T00:04:31;2.13;;;1.20;;
54454;SDS011;40364;52.270;10.546;2024-02-14T00:06:58;8.18;;;2.00;;
54454;SDS011;40364;52.270;10.546;2024-02-14T00:09:25;12.95;;;1.75;;
54454;SDS011;40364;52.270;10.546;2024-02-14T00:11:52;2.88;;;1.45;;
54454;SDS011;40364;52.270;10.546;2024-02-14T00:14:18;5.07;;;1.40;;
54454;SDS011;40364;52.270;10.546;2024-02-14T00:16:45;2.72;;;1.60;;
54454;SDS011;40364;52.270;10.546;2024-02-14T00:19:14;3.97;;;1.42;;
54454;SDS011;40364;52.270;10.546;2024-02-14T00:21:40;4.22;;;1.38;;
54454;SDS011;40364;52.270;10.546;2024-02-14T00:24:07;2.67;;;1.55;;
54454;SDS011;40364;52.270;10.546;2024-02-14T00:33:40;4.32;;;1.55;;
54454;SDS011;40364;52.270;10.546;2024-02-14T00:38:54;5.60;;;1.60;;
54454;SDS011;40364;52.270;10.546;2024-02-14T00:41:21;4.32;;;1.60;;
54454;SDS011;40364;52.270;10.546;2024-02-14T00:43:47;3.88;;;1.30;;
54454;SDS011;40364;52.270;10.546;2024-02-14T00:46:15;2.83;;;1.33;;
54454;SDS011;40364;52.270;10.546;2024-02-14T00:48:42;1.85;;;1.10;;
54454;SDS011;40364;52.270;10.546;2024-02-14T00:51:10;3.53;;;1.60;;
54454;SDS011;40364;52.270;10.546;2024-02-14T00:53:37;5.10;;;2.08;;
54454;SDS011;40364;52.270;10.546;2024-02-14T00:56:06;3.25;;;1.63;;
54454;SDS011;40364;52.270;10.546;2024-02-14T00:58:33;5.05;;;1.67;;
54454;SDS011;40364;52.270;10.546;2024-02-14T01:01:00;3.20;;;1.40;;
54454;SDS011;40364;52.270;10.546;2024-02-14T01:03:27;2.10;;;1.30;;
54454;SDS011;40364;52.270;10.546;2024-02-14T01:05:53;2.60;;;1.30;;
54454;SDS011;40364;52.270;10.546;2024-02-14T01:08:20;2.58;;;1.08;;
54454;SDS011;40364;52.270;10.546;2024-02-14T01:10:47;3.67;;;2.05;;
54454;SDS011;40364;52.270;10.546;2024-02-14T01:13:18;2.55;;;1.20;;
54454;SDS011;40364;52.270;10.546;2024-02-14T01:15:44;3.75;;;1.40;;
54454;SDS011;40364;52.270;10.546;2024-02-14T01:18:11;3.55;;;1.20;;
54454;SDS011;40364;52.270;10.546;2024-02-14T01:20:41;3.05;;;1.42;;
54454;SDS011;40364;52.270;10.546;2024-02-14T01:23:08;4.28;;;1.20;;
54454;SDS011;40364;52.270;10.546;2024-02-14T01:25:34;1.95;;;1.30;;
54454;SDS011;40364;52.270;10.546;2024-02-14T01:28:01;4.00;;;1.33;;
54454;SDS011;40364;52.270;10.546;2024-02-14T01:30:29;2.42;;;1.25;;
54454;SDS011;40364;52.270;10.546;2024-02-14T01:32:56;1.95;;;1.08;;
54454;SDS011;40364;52.270;10.546;2024-02-14T01:35:23;1.55;;;1.20;;
54454;SDS011;40364;52.270;10.546;2024-02-14T01:37:51;2.83;;;1.30;;
54454;SDS011;40364;52.270;10.546;2024-02-14T01:40:19;2.95;;;1.27;;
54454;SDS011;40364;52.270;10.546;2024-02-14T01:42:46;9.68;;;1.45;;
54454;SDS011;40364;52.270;10.546;2024-02-14T01:45:13;1.73;;;0.98;;
54454;SDS011;40364;52.270;10.546;2024-02-14T01:47:41;1.90;;;1.13;;
54454;SDS011;40364;52.270;10.546;2024-02-14T01:50:08;3.65;;;1.33;;
54454;SDS011;40364;52.270;10.546;2024-02-14T01:52:36;2.58;;;1.13;;
54454;SDS011;40364;52.270;10.546;2024-02-14T01:55:05;2.10;;;1.30;;
54454;SDS011;40364;52.270;10.546;2024-02-14T01:57:33;4.00;;;1.30;;
54454;SDS011;40364;52.270;10.546;2024-02-14T02:00:03;2.88;;;1.15;;
54454;SDS011;40364;52.270;10.546;2024-02-14T02:02:33;3.85;;;1.30;;
54454;SDS011;40364;52.270;10.546;2024-02-14T02:05:03;1.80;;;1.20;;
54454;SDS011;40364;52.270;10.546;2024-02-14T02:07:30;3.78;;;1.70;;
54454;SDS011;40364;52.270;10.546;2024-02-14T02:09:58;2.25;;;1.48;;
54454;SDS011;40364;52.270;10.546;2024-02-14T02:12:25;3.00;;;1.45;;
54454;SDS011;40364;52.270;10.546;2024-02-14T02:14:52;6.68;;;1.50;;
54454;SDS011;40364;52.270;10.546;2024-02-14T02:17:19;2.20;;;1.25;;
54454;SDS011;40364;52.270;10.546;2024-02-14T02:19:46;3.92;;;1.50;;
54454;SDS011;40364;52.270;10.546;2024-02-14T02:22:14;6.47;;;1.88;;
54454;SDS011;40364;52.270;10.546;2024-02-14T02:24:42;3.95;;;1.50;;
54454;SDS011;40364;52.270;10.546;2024-02-14T02:27:10;1.73;;;1.33;;
54454;SDS011;40364;52.270;10.546;2024-02-14T02:29:39;5.95;;;1.33;;
54454;SDS011;40364;52.270;10.546;2024-02-14T02:32:05;3.60;;;1.48;;
54454;SDS011;40364;52.270;10.546;2024-02-14T02:34:36;2.25;;;1.35;;
54454;SDS011;40364;52.270;10.546;2024-02-14T02:37:04;3.00;;;1.10;;
54454;SDS011;40364;52.270;10.546;2024-02-14T02:39:34;3.35;;;1.73;;
54454;SDS011;40364;52.270;10.546;2024-02-14T02:42:07;2.75;;;1.40;;
54454;SDS011;40364;52.270;10.546;2024-02-14T02:44:37;4.55;;;2.00;;
54454;SDS011;40364;52.270;10.546;2024-02-14T02:47:04;2.15;;;1.42;;
54454;SDS011;40364;52.270;10.546;2024-02-14T02:49:31;1.90;;;1.17;;
54454;SDS011;40364;52.270;10.546;2024-02-14T02:51:58;5.35;;;1.50;;
54454;SDS011;40364;52.270;10.546;2024-02-14T02:54:27;2.67;;;1.33;;
54454;SDS011;40364;52.270;10.546;2024-02-14T02:56:54;4.55;;;1.63;;
54454;SDS011;40364;52.270;10.546;2024-02-14T02:59:27;2.95;;;1.83;;
54454;SDS011;40364;52.270;10.546;2024-02-14T03:01:54;1.65;;;1.40;;
54454;SDS011;40364;52.270;10.546;2024-02-14T03:04:23;4.35;;;1.85;;
54454;SDS011;40364;52.270;10.546;2024-02-14T03:06:50;3.03;;;1.52;;
54454;SDS011;40364;52.270;10.546;2024-02-14T03:09:16;4.82;;;1.70;;
54454;SDS011;40364;52.270;10.546;2024-02-14T03:11:45;6.25;;;1.77;;
54454;SDS011;40364;52.270;10.546;2024-02-14T03:14:13;4.55;;;1.73;;
54454;SDS011;40364;52.270;10.546;2024-02-14T03:16:41;6.13;;;1.65;;
54454;SDS011;40364;52.270;10.546;2024-02-14T03:19:08;8.70;;;1.90;;
54454;SDS011;40364;52.270;10.546;2024-02-14T03:21:35;3.05;;;1.27;;
54454;SDS011;40364;52.270;10.546;2024-02-14T03:24:01;4.97;;;2.30;;
54454;SDS011;40364;52.270;10.546;2024-02-14T03:26:30;3.08;;;1.73;;
54454;SDS011;40364;52.270;10.546;2024-02-14T03:28:58;7.13;;;2.05;;
54454;SDS011;40364;52.270;10.546;2024-02-14T03:31:25;5.35;;;2.10;;
54454;SDS011;40364;52.270;10.546;2024-02-14T03:33:53;8.38;;;1.98;;
54454;SDS011;40364;52.270;10.546;2024-02-14T03:36:20;4.15;;;1.80;;
54454;SDS011;40364;52.270;10.546;2024-02-14T03:38:47;5.72;;;2.17;;
54454;SDS011;40364;52.270;10.546;2024-02-14T03:41:14;7.38;;;1.67;;
54454;SDS011;40364;52.270;10.546;2024-02-14T03:43:41;4.82;;;1.77;;
54454;SDS011;40364;52.270;10.546;2024-02-14T03:46:08;7.28;;;2.35;;
54454;SDS011;40364;52.270;10.546;2024-02-14T03:48:37;5.88;;;2.10;;
54454;SDS011;40364;52.270;10.546;2024-02-14T03:51:07;4.28;;;2.30;;
54454;SDS011;40364;52.270;10.546;2024-02-14T03:53:34;3.45;;;2.00;;
54454;SDS011;40364;52.270;10.546;2024-02-14T03:56:02;4.50;;;2.00;;
54454;SDS011;40364;52.270;10.546;2024-02-14T03:58:29;9.65;;;2.45;;
54454;SDS011;40364;52.270;10.546;2024-02-14T04:00:58;4.57;;;1.75;;
54454;SDS011;40364;52.270;10.546;2024-02-14T04:03:24;3.60;;;1.85;;
54454;SDS011;40364;52.270;10.546;2024-02-14T04:05:54;4.18;;;1.70;;
54454;SDS011;40364;52.270;10.546;2024-02-14T04:08:22;3.85;;;1.70;;
54454;SDS011;40364;52.270;10.546;2024-02-14T04:10:50;7.60;;;1.95;;
54454;SDS011;40364;52.270;10.546;2024-02-14T04:13:19;4.90;;;2.28;;
54454;SDS011;40364;52.270;10.546;2024-02-14T04:15:45;8.90;;;2.22;;
54454;SDS011;40364;52.270;10.546;2024-02-14T04:18:12;3.05;;;2.00;;
54454;SDS011;40364;52.270;10.546;2024-02-14T04:20:39;5.53;;;2.03;;
54454;SDS011;40364;52.270;10.546;2024-02-14T04:23:08;4.05;;;2.33;;
54454;SDS011;40364;52.270;10.546;2024-02-14T04:25:36;3.65;;;2.08;;
54454;SDS011;40364;52.270;10.546;2024-02-14T04:28:03;5.40;;;1.80;;
54454;SDS011;40364;52.270;10.546;2024-02-14T04:30:30;6.47;;;1.95;;
54454;SDS011;40364;52.270;10.546;2024-02-14T04:32:56;10.02;;;2.33;;
54454;SDS011;40364;52.270;10.546;2024-02-14T04:35:27;6.45;;;1.75;;
54454;SDS011;40364;52.270;10.546;2024-02-14T04:37:54;4.82;;;1.80;;
54454;SDS011;40364;52.270;10.546;2024-02-14T04:40:22;5.03;;;2.10;;
54454;SDS011;40364;52.270;10.546;2024-02-14T04:42:52;2.95;;;1.25;;
54454;SDS011;40364;52.270;10.546;2024-02-14T04:45:19;5.68;;;1.73;;
54454;SDS011;40364;52.270;10.546;2024-02-14T04:47:46;5.32;;;1.80;;
54454;SDS011;40364;52.270;10.546;2024-02-14T04:50:13;3.22;;;2.10;;
54454;SDS011;40364;52.270;10.546;2024-02-14T04:52:40;3.50;;;1.92;;
54454;SDS011;40364;52.270;10.546;2024-02-14T04:55:07;2.88;;;1.80;;
54454;SDS011;40364;52.270;10.546;2024-02-14T04:57:34;3.40;;;1.70;;
54454;SDS011;40364;52.270;10.546;2024-02-14T05:00:04;2.78;;;1.73;;
54454;SDS011;40364;52.270;10.546;2024-02-14T05:02:32;6.60;;;1.45;;
54454;SDS011;40364;52.270;10.546;2024-02-14T05:04:59;5.38;;;1.90;;
54454;SDS011;40364;52.270;10.546;2024-02-14T05:07:26;3.17;;;1.60;;
54454;SDS011;40364;52.270;10.546;2024-02-14T05:09:53;4.20;;;1.52;;
54454;SDS011;40364;52.270;10.546;2024-02-14T05:12:21;5.38;;;1.80;;
54454;SDS011;40364;52.270;10.546;2024-02-14T05:14:48;3.10;;;1.48;;
54454;SDS011;40364;52.270;10.546;2024-02-14T05:17:16;5.90;;;1.80;;
54454;SDS011;40364;52.270;10.546;2024-02-14T05:19:43;3.25;;;1.60;;
54454;SDS011;40364;52.270;10.546;2024-02-14T05:22:09;4.55;;;1.85;;
54454;SDS011;40364;52.270;10.546;2024-02-14T05:24:36;3.95;;;1.75;;
54454;SDS011;40364;52.270;10.546;2024-02-14T05:27:03;5.43;;;1.77;;
54454;SDS011;40364;52.270;10.546;2024-02-14T05:29:31;3.65;;;1.90;;
54454;SDS011;40364;52.270;10.546;2024-02-14T05:31:58;3.22;;;1.95;;
54454;SDS011;40364;52.270;10.546;2024-02-14T05:34:26;4.35;;;1.75;;
54454;SDS011;40364;52.270;10.546;2024-02-14T05:36:52;2.55;;;1.42;;
54454;SDS011;40364;52.270;10.546;2024-02-14T05:39:19;6.10;;;1.75;;
54454;SDS011;40364;52.270;10.546;2024-02-14T05:41:46;4.75;;;1.70;;
54454;SDS011;40364;52.270;10.546;2024-02-14T05:44:14;2.92;;;1.60;;
54454;SDS011;40364;52.270;10.546;2024-02-14T05:46:41;4.10;;;1.58;;
54454;SDS011;40364;52.270;10.546;2024-02-14T05:49:08;5.90;;;1.90;;
54454;SDS011;40364;52.270;10.546;2024-02-14T05:51:36;5.25;;;1.98;;
54454;SDS011;40364;52.270;10.546;2024-02-14T05:54:02;3.40;;;1.65;;
54454;SDS011;40364;52.270;10.546;2024-02-14T05:56:29;4.60;;;2.15;;
54454;SDS011;40364;52.270;10.546;2024-02-14T05:58:55;5.00;;;2.35;;
54454;SDS011;40364;52.270;10.546;2024-02-14T06:01:22;7.43;;;2.70;;
54454;SDS011;40364;52.270;10.546;2024-02-14T06:03:49;4.68;;;2.33;;
54454;SDS011;40364;52.270;10.546;2024-02-14T06:06:16;9.57;;;3.00;;
54454;SDS011;40364;52.270;10.546;2024-02-14T06:08:44;9.80;;;2.60;;
54454;SDS011;40364;52.270;10.546;2024-02-14T06:11:11;9.77;;;3.47;;
54454;SDS011;40364;52.270;10.546;2024-02-14T06:13:39;7.40;;;3.15;;
54454;SDS011;40364;52.270;10.546;2024-02-14T06:16:06;9.65;;;2.90;;
54454;SDS011;40364;52.270;10.546;2024-02-14T06:18:33;9.52;;;3.03;;
54454;SDS011;40364;52.270;10.546;2024-02-14T06:21:00;11.63;;;4.25;;
54454;SDS011;40364;52.270;10.546;2024-02-14T06:23:27;9.27;;;3.05;;
54454;SDS011;40364;52.270;10.546;2024-02-14T06:25:55;8.32;;;2.92;;
54454;SDS011;40364;52.270;10.546;2024-02-14T06:28:22;5.10;;;3.17;;
54454;SDS011;40364;52.270;10.546;2024-02-14T06:30:49;8.63;;;2.95;;
54454;SDS011;40364;52.270;10.546;2024-02-14T06:33:16;10.80;;;3.30;;
54454;SDS011;40364;52.270;10.546;2024-02-14T06:35:44;5.78;;;3.40;;
54454;SDS011;40364;52.270;10.546;2024-02-14T06:38:10;6.75;;;2.90;;
54454;SDS011;40364;52.270;10.546;2024-02-14T06:40:37;6.03;;;2.40;;
54454;SDS011;40364;52.270;10.546;2024-02-14T06:43:06;7.88;;;2.83;;
54454;SDS011;40364;52.270;10.546;2024-02-14T06:45:33;10.63;;;3.40;;
54454;SDS011;40364;52.270;10.546;2024-02-14T06:48:00;8.60;;;3.22;;
54454;SDS011;40364;52.270;10.546;2024-02-14T06:50:26;7.10;;;3.10;;
54454;SDS011;40364;52.270;10.546;2024-02-14T06:52:54;7.05;;;2.45;;
54454;SDS011;40364;52.270;10.546;2024-02-14T06:55:24;6.45;;;2.17;;
54454;SDS011;40364;52.270;10.546;2024-02-14T06:57:51;3.00;;;2.10;;
54454;SDS011;40364;52.270;10.546;2024-02-14T07:00:19;7.57;;;2.35;;
54454;SDS011;40364;52.270;10.546;2024-02-14T07:02:47;6.28;;;2.13;;
54454;SDS011;40364;52.270;10.546;2024-02-14T07:05:13;4.00;;;2.10;;
54454;SDS011;40364;52.270;10.546;2024-02-14T07:07:40;5.93;;;2.33;;
54454;SDS011;40364;52.270;10.546;2024-02-14T07:10:07;5.00;;;2.47;;
54454;SDS011;40364;52.270;10.546;2024-02-14T07:12:35;11.02;;;2.70;;
54454;SDS011;40364;52.270;10.546;2024-02-14T07:15:02;4.38;;;2.33;;
54454;SDS011;40364;52.270;10.546;2024-02-14T07:17:30;6.80;;;2.55;;
54454;SDS011;40364;52.270;10.546;2024-02-14T07:19:57;5.15;;;2.50;;
54454;SDS011;40364;52.270;10.546;2024-02-14T07:22:24;5.55;;;2.97;;
54454;SDS011;40364;52.270;10.546;2024-02-14T07:24:51;5.70;;;2.40;;
54454;SDS011;40364;52.270;10.546;2024-02-14T07:27:19;6.57;;;2.60;;
54454;SDS011;40364;52.270;10.546;2024-02-14T07:29:46;8.35;;;4.10;;
54454;SDS011;40364;52.270;10.546;2024-02-14T07:32:12;9.93;;;2.63;;
54454;SDS011;40364;52.270;10.546;2024-02-14T07:34:41;6.47;;;2.70;;
54454;SDS011;40364;52.270;10.546;2024-02-14T07:37:08;9.40;;;2.70;;
54454;SDS011;40364;52.270;10.546;2024-02-14T07:39:35;7.32;;;2.90;;
54454;SDS011;40364;52.270;10.546;2024-02-14T07:42:02;4.78;;;2.88;;
54454;SDS011;40364;52.270;10.546;2024-02-14T07:44:29;6.80;;;2.35;;
54454;SDS011;40364;52.270;10.546;2024-02-14T07:46:56;6.75;;;2.75;;
54454;SDS011;40364;52.270;10.546;2024-02-14T07:49:25;5.55;;;2.95;;
54454;SDS011;40364;52.270;10.546;2024-02-14T07:51:53;4.63;;;2.80;;
54454;SDS011;40364;52.270;10.546;2024-02-14T07:54:20;6.55;;;3.08;;
54454;SDS011;40364;52.270;10.546;2024-02-14T07:56:49;6.20;;;2.75;;
54454;SDS011;40364;52.270;10.546;2024-02-14T07:59:15;5.50;;;2.92;;
54454;SDS011;40364;52.270;10.546;2024-02-14T08:01:42;7.25;;;2.75;;
54454;SDS011;40364;52.270;10.546;2024-02-14T08:04:09;7.20;;;2.88;;
54454;SDS011;40364;52.270;10.546;2024-02-14T08:06:36;4.15;;;2.47;;
54454;SDS011;40364;52.270;10.546;2024-02-14T08:09:04;7.82;;;2.55;;
54454;SDS011;40364;52.270;10.546;2024-02-14T08:11:34;7.22;;;2.97;;
54454;SDS011;40364;52.270;10.546;2024-02-14T08:14:02;7.22;;;3.20;;
54454;SDS011;40364;52.270;10.546;2024-02-14T08:16:30;11.77;;;3.30;;
54454;SDS011;40364;52.270;10.546;2024-02-14T08:18:57;7.47;;;2.58;;
54454;SDS011;40364;52.270;10.546;2024-02-14T08:21:24;7.18;;;2.92;;
54454;SDS011;40364;52.270;10.546;2024-02-14T08:23:52;3.90;;;2.35;;
54454;SDS011;40364;52.270;10.546;2024-02-14T08:26:20;6.60;;;2.30;;
54454;SDS011;40364;52.270;10.546;2024-02-14T08:28:47;11.38;;;2.75;;
54454;SDS011;40364;52.270;10.546;2024-02-14T08:31:14;3.05;;;1.95;;
54454;SDS011;40364;52.270;10.546;2024-02-14T08:33:41;10.68;;;3.22;;
54454;SDS011;40364;52.270;10.546;2024-02-14T08:36:08;5.32;;;2.67;;
54454;SDS011;40364;52.270;10.546;2024-02-14T08:38:35;7.60;;;2.90;;
54454;SDS011;40364;52.270;10.546;2024-02-14T08:41:02;6.20;;;2.42;;
54454;SDS011;40364;52.270;10.546;2024-02-14T08:43:31;13.77;;;2.60;;
54454;SDS011;40364;52.270;10.546;2024-02-14T08:45:58;6.13;;;2.55;;
54454;SDS011;40364;52.270;10.546;2024-02-14T08:48:26;4.00;;;2.33;;
54454;SDS011;40364;52.270;10.546;2024-02-14T08:50:54;4.40;;;2.15;;
54454;SDS011;40364;52.270;10.546;2024-02-14T08:53:21;7.00;;;2.25;;
54454;SDS011;40364;52.270;10.546;2024-02-14T08:55:47;3.83;;;2.38;;
54454;SDS011;40364;52.270;10.546;2024-02-14T08:58:14;6.28;;;2.22;;
54454;SDS011;40364;52.270;10.546;2024-02-14T09:00:42;6.88;;;2.58;;
54454;SDS011;40364;52.270;10.546;2024-02-14T09:03:09;6.22;;;2.42;;
54454;SDS011;40364;52.270;10.546;2024-02-14T09:05:36;4.07;;;2.30;;
54454;SDS011;40364;52.270;10.546;2024-02-14T09:08:04;4.25;;;2.20;;
54454;SDS011;40364;52.270;10.546;2024-02-14T09:10:31;7.32;;;2.33;;
54454;SDS011;40364;52.270;10.546;2024-02-14T09:12:59;3.38;;;2.00;;
54454;SDS011;40364;52.270;10.546;2024-02-14T09:15:27;3.17;;;1.73;;
54454;SDS011;40364;52.270;10.546;2024-02-14T09:17:57;4.80;;;2.00;;
54454;SDS011;40364;52.270;10.546;2024-02-14T09:20:25;5.28;;;2.17;;
54454;SDS011;40364;52.270;10.546;2024-02-14T09:22:52;5.28;;;2.40;;
54454;SDS011;40364;52.270;10.546;2024-02-14T09:25:18;4.45;;;2.53;;
54454;SDS011;40364;52.270;10.546;2024-02-14T09:27:48;9.70;;;2.47;;
54454;SDS011;40364;52.270;10.546;2024-02-14T09:30:15;4.35;;;2.30;;
54454;SDS011;40364;52.270;10.546;2024-02-14T09:32:42;5.38;;;2.25;;
54454;SDS011;40364;52.270;10.546;2024-02-14T09:35:13;3.53;;;2.33;;
54454;SDS011;40364;52.270;10.546;2024-02-14T09:37:40;5.90;;;2.60;;
54454;SDS011;40364;52.270;10.546;2024-02-14T09:40:08;3.90;;;2.10;;
54454;SDS011;40364;52.270;10.546;2024-02-14T09:42:38;6.70;;;2.60;;
54454;SDS011;40364;52.270;10.546;2024-02-14T09:45:09;5.05;;;2.90;;
54454;SDS011;40364;52.270;10.546;2024-02-14T09:47:36;3.45;;;2.30;;
54454;SDS011;40364;52.270;10.546;2024-02-14T09:50:06;6.72;;;2.08;;
54454;SDS011;40364;52.270;10.546;2024-02-14T09:52:37;4.25;;;2.33;;
54454;SDS011;40364;52.270;10.546;2024-02-14T09:55:04;4.93;;;2.55;;
54454;SDS011;40364;52.270;10.546;2024-02-14T09:57:32;4.90;;;2.90;;
54454;SDS011;40364;52.270;10.546;2024-02-14T10:00:00;4.75;;;2.60;;
54454;SDS011;40364;52.270;10.546;2024-02-14T10:02:27;6.13;;;2.58;;
54454;SDS011;40364;52.270;10.546;2024-02-14T10:04:56;5.80;;;2.80;;
54454;SDS011;40364;52.270;10.546;2024-02-14T10:07:22;4.65;;;2.35;;
54454;SDS011;40364;52.270;10.546;2024-02-14T10:09:50;3.08;;;2.25;;
54454;SDS011;40364;52.270;10.546;2024-02-14T10:12:18;4.57;;;2.45;;
54454;SDS011;40364;52.270;10.546;2024-02-14T10:14:45;5.50;;;2.55;;
54454;SDS011;40364;52.270;10.546;2024-02-14T10:17:17;5.53;;;2.20;;
54454;SDS011;40364;52.270;10.546;2024-02-14T10:19:54;7.03;;;2.47;;
54454;SDS011;40364;52.270;10.546;2024-02-14T10:22:21;5.47;;;2.45;;
54454;SDS011;40364;52.270;10.546;2024-02-14T10:24:48;3.75;;;2.42;;
54454;SDS011;40364;52.270;10.546;2024-02-14T10:27:16;9.75;;;2.65;;
54454;SDS011;40364;52.270;10.546;2024-02-14T10:29:45;2.95;;;2.38;;
54454;SDS011;40364;52.270;10.546;2024-02-14T10:32:14;6.15;;;2.38;;
54454;SDS011;40364;52.270;10.546;2024-02-14T10:34:42;7.00;;;2.15;;
54454;SDS011;40364;52.270;10.546;2024-02-14T10:37:11;7.32;;;2.50;;
54454;SDS011;40364;52.270;10.546;2024-02-14T10:39:41;7.07;;;2.28;;
54454;SDS011;40364;52.270;10.546;2024-02-14T10:42:09;4.32;;;2.17;;
54454;SDS011;40364;52.270;10.546;2024-02-14T10:44:38;3.53;;;2.40;;
54454;SDS011;40364;52.270;10.546;2024-02-14T10:47:05;4.80;;;2.35;;
54454;SDS011;40364;52.270;10.546;2024-02-14T10:49:36;3.55;;;2.17;;
54454;SDS011;40364;52.270;10.546;2024-02-14T10:52:06;3.40;;;1.92;;
54454;SDS011;40364;52.270;10.546;2024-02-14T10:54:35;5.60;;;2.05;;
54454;SDS011;40364;52.270;10.546;2024-02-14T10:57:04;5.20;;;2.80;;
54454;SDS011;40364;52.270;10.546;2024-02-14T10:59:37;3.53;;;2.17;;
54454;SDS011;40364;52.270;10.546;2024-02-14T11:02:08;3.97;;;2.13;;
54454;SDS011;40364;52.270;10.546;2024-02-14T11:04:35;4.43;;;1.80;;
54454;SDS011;40364;52.270;10.546;2024-02-14T11:07:03;3.40;;;1.90;;
54454;SDS011;40364;52.270;10.546;2024-02-14T11:09:35;5.97;;;2.65;;
54454;SDS011;40364;52.270;10.546;2024-02-14T11:12:03;4.93;;;2.10;;
54454;SDS011;40364;52.270;10.546;2024-02-14T11:14:33;9.63;;;2.50;;
54454;SDS011;40364;52.270;10.546;2024-02-14T11:17:08;3.03;;;2.05;;
54454;SDS011;40364;52.270;10.546;2024-02-14T11:19:35;5.95;;;1.90;;
54454;SDS011;40364;52.270;10.546;2024-02-14T11:24:51;4.15;;;2.10;;
54454;SDS011;40364;52.270;10.546;2024-02-14T11:27:18;3.20;;;1.67;;
54454;SDS011;40364;52.270;10.546;2024-02-14T11:29:50;3.75;;;2.15;;
54454;SDS011;40364;52.270;10.546;2024-02-14T11:32:19;2.35;;;1.63;;
54454;SDS011;40364;52.270;10.546;2024-02-14T11:34:56;3.80;;;2.15;;
54454;SDS011;40364;52.270;10.546;2024-02-14T11:37:27;6.03;;;2.13;;
54454;SDS011;40364;52.270;10.546;2024-02-14T11:39:54;2.03;;;1.50;;
54454;SDS011;40364;52.270;10.546;2024-02-14T11:42:23;4.97;;;1.70;;
54454;SDS011;40364;52.270;10.546;2024-02-14T11:44:50;3.50;;;1.88;;
54454;SDS011;40364;52.270;10.546;2024-02-14T11:49:45;6.05;;;1.70;;
54454;SDS011;40364;52.270;10.546;2024-02-14T11:52:12;3.58;;;1.67;;
54454;SDS011;40364;52.270;10.546;2024-02-14T11:54:39;4.05;;;1.65;;
54454;SDS011;40364;52.270;10.546;2024-02-14T11:57:05;3.90;;;1.48;;
54454;SDS011;40364;52.270;10.546;2024-02-14T11:59:33;3.70;;;1.60;;
54454;SDS011;40364;52.270;10.546;2024-02-14T12:02:00;2.60;;;1.80;;
54454;SDS011;40364;52.270;10.546;2024-02-14T12:04:27;2.58;;;1.33;;
54454;SDS011;40364;52.270;10.546;2024-02-14T12:06:56;3.17;;;1.73;;
54454;SDS011;40364;52.270;10.546;2024-02-14T12:09:22;4.22;;;1.92;;
54454;SDS011;40364;52.270;10.546;2024-02-14T12:11:49;3.42;;;1.75;;
54454;SDS011;40364;52.270;10.546;2024-02-14T12:14:17;2.25;;;1.42;;
54454;SDS011;40364;52.270;10.546;2024-02-14T12:16:49;4.47;;;1.38;;
54454;SDS011;40364;52.270;10.546;2024-02-14T12:19:16;3.42;;;1.42;;
54454;SDS011;40364;52.270;10.546;2024-02-14T12:21:44;3.53;;;1.52;;
54454;SDS011;40364;52.270;10.546;2024-02-14T12:24:12;5.13;;;1.90;;
54454;SDS011;40364;52.270;10.546;2024-02-14T12:26:40;2.38;;;1.55;;
54454;SDS011;40364;52.270;10.546;2024-02-14T12:29:08;3.10;;;1.60;;
54454;SDS011;40364;52.270;10.546;2024-02-14T12:31:38;3.17;;;1.42;;
54454;SDS011;40364;52.270;10.546;2024-02-14T12:34:04;2.70;;;1.45;;
54454;SDS011;40364;52.270;10.546;2024-02-14T12:36:31;3.00;;;1.40;;
54454;SDS011;40364;52.270;10.546;2024-02-14T12:38:58;3.47;;;1.60;;
54454;SDS011;40364;52.270;10.546;2024-02-14T12:41:29;4.65;;;1.23;;
54454;SDS011;40364;52.270;10.546;2024-02-14T12:43:55;3.50;;;1.60;;
54454;SDS011;40364;52.270;10.546;2024-02-14T12:46:22;2.92;;;1.42;;
54454;SDS011;40364;52.270;10.546;2024-02-14T12:48:49;3.05;;;1.70;;
54454;SDS011;40364;52.270;10.546;2024-02-14T12:51:15;1.88;;;1.50;;
54454;SDS011;40364;52.270;10.546;2024-02-14T12:53:43;4.38;;;1.30;;
54454;SDS011;40364;52.270;10.546;2024-02-14T12:56:09;3.45;;;1.50;;
54454;SDS011;40364;52.270;10.546;2024-02-14T12:58:37;1.73;;;1.27;;
54454;SDS011;40364;52.270;10.546;2024-02-14T13:01:04;5.38;;;1.40;;
54454;SDS011;40364;52.270;10.546;2024-02-14T13:03:31;2.28;;;1.20;;
54454;SDS011;40364;52.270;10.546;2024-02-14T13:05:58;2.00;;;1.38;;
54454;SDS011;40364;52.270;10.546;2024-02-14T13:08:25;2.13;;;1.40;;
54454;SDS011;40364;52.270;10.546;2024-02-14T13:10:52;1.83;;;1.52;;
54454;SDS011;40364;52.270;10.546;2024-02-14T13:13:19;2.78;;;1.65;;
54454;SDS011;40364;52.270;10.546;2024-02-14T13:15:47;3.15;;;1.50;;
54454;SDS011;40364;52.270;10.546;2024-02-14T13:18:13;1.88;;;1.27;;
54454;SDS011;40364;52.270;10.546;2024-02-14T13:20:41;5.13;;;1.55;;
54454;SDS011;40364;52.270;10.546;2024-02-14T13:23:09;2.15;;;1.40;;
54454;SDS011;40364;52.270;10.546;2024-02-14T13:25:36;5.45;;;1.50;;
54454;SDS011;40364;52.270;10.546;2024-02-14T13:28:02;5.85;;;1.20;;
54454;SDS011;40364;52.270;10.546;2024-02-14T13:30:29;3.30;;;1.50;;
54454;SDS011;40364;52.270;10.546;2024-02-14T13:32:57;2.55;;;1.50;;
54454;SDS011;40364;52.270;10.546;2024-02-14T13:35:24;4.28;;;1.50;;
54454;SDS011;40364;52.270;10.546;2024-02-14T13:37:50;3.10;;;1.40;;
54454;SDS011;40364;52.270;10.546;2024-02-14T13:40:17;2.75;;;1.40;;
54454;SDS011;40364;52.270;10.546;2024-02-14T13:42:44;4.03;;;1.63;;
54454;SDS011;40364;52.270;10.546;2024-02-14T13:45:10;10.43;;;1.50;;
54454;SDS011;40364;52.270;10.546;2024-02-14T13:47:37;3.63;;;1.25;;
54454;SDS011;40364;52.270;10.546;2024-02-14T13:50:07;1.67;;;1.48;;
54454;SDS011;40364;52.270;10.546;2024-02-14T13:52:34;3.10;;;1.25;;
54454;SDS011;40364;52.270;10.546;2024-02-14T13:55:01;4.00;;;1.85;;
54454;SDS011;40364;52.270;10.546;2024-02-14T13:57:30;1.85;;;1.45;;
54454;SDS011;40364;52.270;10.546;2024-02-14T13:59:57;6.60;;;1.70;;
54454;SDS011;40364;52.270;10.546;2024-02-14T14:02:24;5.43;;;2.13;;
54454;SDS011;40364;52.270;10.546;2024-02-14T14:04:50;3.00;;;1.50;;
54454;SDS011;40364;52.270;10.546;2024-02-14T14:07:19;5.18;;;1.85;;
54454;SDS011;40364;52.270;10.546;2024-02-14T14:09:47;2.22;;;1.73;;
54454;SDS011;40364;52.270;10.546;2024-02-14T14:12:14;4.55;;;1.70;;
54454;SDS011;40364;52.270;10.546;2024-02-14T14:14:40;2.35;;;1.88;;
54454;SDS011;40364;52.270;10.546;2024-02-14T14:17:07;2.78;;;1.65;;
54454;SDS011;40364;52.270;10.546;2024-02-14T14:19:34;4.40;;;2.08;;
54454;SDS011;40364;52.270;10.546;2024-02-14T14:22:01;2.97;;;1.83;;
54454;SDS011;40364;52.270;10.546;2024-02-14T14:24:29;3.03;;;1.77;;
54454;SDS011;40364;52.270;10.546;2024-02-14T14:26:56;2.00;;;1.25;;
54454;SDS011;40364;52.270;10.546;2024-02-14T14:29:23;1.70;;;1.48;;
54454;SDS011;40364;52.270;10.546;2024-02-14T14:31:50;1.45;;;1.30;;
54454;SDS011;40364;52.270;10.546;2024-02-14T14:34:16;2.50;;;1.40;;
54454;SDS011;40364;52.270;10.546;2024-02-14T14:36:44;3.22;;;1.33;;
54454;SDS011;40364;52.270;10.546;2024-02-14T14:39:11;4.45;;;1.48;;
54454;SDS011;40364;52.270;10.546;2024-02-14T14:41:39;2.25;;;1.40;;
54454;SDS011;40364;52.270;10.546;2024-02-14T14:44:07;2.70;;;1.77;;
54454;SDS011;40364;52.270;10.546;2024-02-14T14:46:34;3.47;;;1.60;;
54454;SDS011;40364;52.270;10.546;2024-02-14T14:49:00;3.17;;;1.60;;
54454;SDS011;40364;52.270;10.546;2024-02-14T14:51:27;3.90;;;1.70;;